createdAt,value
2022-12-01T00:01:41.778Z,97972.98
2022-12-01T00:04:10.834Z,97968.71
2022-12-01T00:06:40.856Z,97970.09
2022-12-01T00:09:28.718Z,97970.77
2022-12-01T00:11:57.681Z,97970.41
2022-12-01T00:14:26.667Z,97972.81
2022-12-01T00:16:56.617Z,97971.61
2022-12-01T00:19:26.986Z,97971.44
2022-12-01T00:21:55.696Z,97976.60
2022-12-01T00:24:25.615Z,97976.29
2022-12-01T00:26:54.399Z,97976.82
2022-12-01T00:29:23.498Z,97977.52
2022-12-01T00:31:52.548Z,97973.25
2022-12-01T00:34:24.715Z,97973.61
2022-12-01T00:36:53.961Z,97970.73
2022-12-01T00:39:23.459Z,97971.11
2022-12-01T00:41:52.376Z,97973.17
2022-12-01T00:44:22.185Z,97975.92
2022-12-01T00:46:51.671Z,97975.27
2022-12-01T00:49:21.997Z,97969.65
2022-12-01T00:51:51.210Z,97967.79
2022-12-01T00:54:20.386Z,97972.23
2022-12-01T00:56:50.184Z,97975.48
2022-12-01T00:59:19.424Z,97975.14
2022-12-01T01:01:50.512Z,97973.79
2022-12-01T01:04:21.413Z,97974.80
2022-12-01T01:06:50.881Z,97975.66
2022-12-01T01:09:20.682Z,97973.27
2022-12-01T01:11:50.669Z,97975.17
2022-12-01T01:14:20.969Z,97972.29
2022-12-01T01:16:52.139Z,97968.38
2022-12-01T01:19:21.501Z,97967.52
2022-12-01T01:21:51.354Z,97968.72
2022-12-01T01:24:21.400Z,97967.52
2022-12-01T01:26:51.022Z,97961.90
2022-12-01T01:29:20.229Z,97959.70
2022-12-01T01:31:50.311Z,97958.85
2022-12-01T01:34:20.556Z,97958.16
2022-12-01T01:36:49.539Z,97957.64
2022-12-01T01:39:19.960Z,97953.70
2022-12-01T01:41:49.885Z,97954.23
2022-12-01T01:44:54.767Z,97953.38
2022-12-01T01:47:41.130Z,97951.84
2022-12-01T01:50:14.118Z,97952.19
2022-12-01T01:52:52.932Z,97950.33
2022-12-01T01:55:22.634Z,97946.23
2022-12-01T01:57:53.872Z,97945.15
2022-12-01T02:00:24.250Z,97946.13
2022-12-01T02:02:55.333Z,97944.27
2022-12-01T02:05:35.292Z,97939.98
2022-12-01T02:08:05.834Z,97939.28
2022-12-01T02:10:50.703Z,97939.98
2022-12-01T02:13:48.692Z,97941.54
2022-12-01T02:16:28.069Z,97938.16
2022-12-01T02:19:25.661Z,97939.73
2022-12-01T02:22:04.536Z,97938.42
2022-12-01T02:24:44.264Z,97940.63
2022-12-01T02:27:33.104Z,97941.14
2022-12-01T02:30:10.356Z,97935.31
2022-12-01T02:33:00.768Z,97936.48
2022-12-01T02:35:33.423Z,97938.16
2022-12-01T02:38:13.079Z,97939.53
2022-12-01T02:41:08.718Z,97934.73
2022-12-01T02:43:51.225Z,97934.91
2022-12-01T02:46:37.855Z,97942.08
2022-12-01T02:49:37.683Z,97942.92
2022-12-01T02:52:08.663Z,97939.86
2022-12-01T02:54:39.349Z,97939.52
2022-12-01T02:57:14.926Z,97938.36
2022-12-01T02:59:51.664Z,97939.06
2022-12-01T03:02:44.964Z,97939.58
2022-12-01T03:05:34.880Z,97940.41
2022-12-01T03:08:25.426Z,97943.50
2022-12-01T03:10:56.030Z,97940.93
2022-12-01T03:13:42.846Z,97942.98
2022-12-01T03:16:20.187Z,97939.58
2022-12-01T03:19:07.506Z,97933.95
2022-12-01T03:21:42.527Z,97929.34
2022-12-01T03:24:18.027Z,97933.92
2022-12-01T03:26:52.579Z,97935.77
2022-12-01T03:29:27.876Z,97937.10
2022-12-01T03:32:10.481Z,97931.44
2022-12-01T03:34:50.414Z,97926.81
2022-12-01T03:37:41.148Z,97925.46
2022-12-01T03:40:16.321Z,97924.98
2022-12-01T03:42:54.489Z,97925.00
2022-12-01T03:45:41.797Z,97926.70
2022-12-01T03:48:11.204Z,97922.44
2022-12-01T03:50:54.539Z,97927.19
2022-12-01T03:53:28.470Z,97925.29
2022-12-01T03:56:03.648Z,97923.55
2022-12-01T03:58:38.828Z,97923.54
2022-12-01T04:01:09.586Z,97920.98
2022-12-01T04:03:39.644Z,97920.80
2022-12-01T04:06:09.253Z,97924.03
2022-12-01T04:08:39.707Z,97925.20
2022-12-01T04:11:32.473Z,97924.84
2022-12-01T04:14:02.896Z,97924.98
2022-12-01T04:16:32.110Z,97925.64
2022-12-01T04:19:01.515Z,97924.77
2022-12-01T04:21:31.152Z,97924.06
2022-12-01T04:24:01.104Z,97928.98
2022-12-01T04:26:32.673Z,97933.29
2022-12-01T04:29:05.152Z,97930.42
2022-12-01T04:31:35.647Z,97927.89
2022-12-01T04:34:06.307Z,97929.08
2022-12-01T04:36:36.715Z,97933.50
2022-12-01T04:39:05.973Z,97935.23
2022-12-01T04:41:35.435Z,97931.66
2022-12-01T04:44:05.569Z,97934.55
2022-12-01T04:46:35.199Z,97936.58
2022-12-01T04:49:06.571Z,97942.72
2022-12-01T04:51:35.581Z,97938.11
2022-12-01T04:54:06.317Z,97938.28
2022-12-01T04:56:35.515Z,97940.00
2022-12-01T04:59:05.227Z,97938.98
2022-12-01T05:01:35.357Z,97936.75
2022-12-01T05:04:05.995Z,97937.09
2022-12-01T05:06:35.810Z,97937.73
2022-12-01T05:09:05.397Z,97935.84
2022-12-01T05:11:36.744Z,97937.20
2022-12-01T05:14:06.867Z,97933.80
2022-12-01T05:16:36.015Z,97932.28
2022-12-01T05:19:26.307Z,97929.37
2022-12-01T05:21:55.553Z,97923.05
2022-12-01T05:24:25.052Z,97925.42
2022-12-01T05:26:55.071Z,97924.02
2022-12-01T05:29:24.137Z,97915.80
2022-12-01T05:31:53.439Z,97916.45
2022-12-01T05:34:22.560Z,97921.88
2022-12-01T05:36:51.452Z,97921.54
2022-12-01T05:39:21.362Z,97925.95
2022-12-01T05:41:50.557Z,97937.02
2022-12-01T05:44:19.360Z,97940.94
2022-12-01T05:46:49.149Z,97939.25
2022-12-01T05:49:18.261Z,97938.39
2022-12-01T05:51:48.099Z,97938.70
2022-12-01T05:54:17.063Z,97932.74
2022-12-01T05:56:46.462Z,97930.36
2022-12-01T05:59:15.544Z,97935.14
2022-12-01T06:01:44.282Z,97933.27
2022-12-01T06:04:13.171Z,97929.70
2022-12-01T06:06:41.909Z,97929.71
2022-12-01T06:09:11.316Z,97933.44
2022-12-01T06:11:40.105Z,97933.58
2022-12-01T06:14:09.429Z,97932.52
2022-12-01T06:16:38.152Z,97934.21
2022-12-01T06:19:07.186Z,97938.98
2022-12-01T06:21:35.764Z,97939.10
2022-12-01T06:24:04.975Z,97934.61
2022-12-01T06:26:33.857Z,97938.18
2022-12-01T06:29:03.057Z,97936.95
2022-12-01T06:31:31.741Z,97934.25
2022-12-01T06:34:01.243Z,97934.60
2022-12-01T06:36:29.834Z,97941.02
2022-12-01T06:38:59.426Z,97942.22
2022-12-01T06:41:28.223Z,97943.10
2022-12-01T06:43:57.014Z,97950.86
2022-12-01T06:46:25.745Z,97950.73
2022-12-01T06:48:54.789Z,97950.69
2022-12-01T06:51:23.478Z,97951.32
2022-12-01T06:53:57.727Z,97951.05
2022-12-01T06:56:29.964Z,97950.83
2022-12-01T06:58:59.163Z,97950.60
2022-12-01T07:01:28.825Z,97946.26
2022-12-01T07:03:57.655Z,97945.73
2022-12-01T07:06:26.550Z,97944.92
2022-12-01T07:08:55.133Z,97943.00
2022-12-01T07:11:24.222Z,97942.16
2022-12-01T07:13:56.698Z,97937.20
2022-12-01T07:16:26.781Z,97928.35
2022-12-01T07:18:56.219Z,97925.08
2022-12-01T07:21:25.420Z,97923.65
2022-12-01T07:23:55.130Z,97920.69
2022-12-01T07:26:23.712Z,97917.01
2022-12-01T07:28:53.411Z,97915.13
2022-12-01T07:31:22.348Z,97909.34
2022-12-01T07:33:51.812Z,97908.15
2022-12-01T07:36:20.808Z,97904.63
2022-12-01T07:38:49.489Z,97912.45
2022-12-01T07:41:19.660Z,97914.10
2022-12-01T07:43:49.422Z,97913.75
2022-12-01T07:46:23.702Z,97914.77
2022-12-01T07:48:54.563Z,97916.48
2022-12-01T07:51:24.289Z,97911.33
2022-12-01T07:53:54.544Z,97909.08
2022-12-01T07:56:23.810Z,97911.26
2022-12-01T07:58:52.311Z,97906.50
2022-12-01T08:01:23.410Z,97915.11
2022-12-01T08:03:54.848Z,97913.14
2022-12-01T08:06:24.863Z,97912.35
2022-12-01T08:08:53.283Z,97909.70
2022-12-01T08:11:31.999Z,97905.82
2022-12-01T08:14:00.587Z,97907.70
2022-12-01T08:16:29.888Z,97903.27
2022-12-01T08:18:58.567Z,97901.96
2022-12-01T08:21:27.663Z,97897.77
2022-12-01T08:23:58.175Z,97895.73
2022-12-01T08:26:28.013Z,97885.51
2022-12-01T08:28:58.176Z,97883.52
2022-12-01T08:31:30.760Z,97883.27
2022-12-01T08:33:59.481Z,97881.84
2022-12-01T08:36:28.312Z,97881.66
2022-12-01T08:38:57.263Z,97879.85
2022-12-01T08:41:26.560Z,97878.48
2022-12-01T08:43:58.400Z,97875.88
2022-12-01T08:46:31.936Z,97873.80
2022-12-01T08:49:01.017Z,97872.38
2022-12-01T08:51:30.729Z,97875.29
2022-12-01T08:54:00.907Z,97870.08
2022-12-01T08:56:39.054Z,97867.52
2022-12-01T08:59:08.256Z,97866.73
2022-12-01T09:01:52.660Z,97864.95
2022-12-01T09:04:26.923Z,97861.61
2022-12-01T09:06:57.499Z,97865.04
2022-12-01T09:09:29.722Z,97860.42
2022-12-01T09:11:58.370Z,97864.36
2022-12-01T09:14:27.504Z,97861.20
2022-12-01T09:16:56.300Z,97855.44
2022-12-01T09:19:25.397Z,97852.86
2022-12-01T09:21:54.276Z,97855.85
2022-12-01T09:24:23.367Z,97857.84
2022-12-01T09:26:56.333Z,97855.23
2022-12-01T09:29:26.339Z,97856.25
2022-12-01T09:32:00.086Z,97852.06
2022-12-01T09:34:29.385Z,97849.53
2022-12-01T09:36:58.980Z,97846.52
2022-12-01T09:39:28.587Z,97845.90
2022-12-01T09:42:09.375Z,97846.46
2022-12-01T09:44:40.806Z,97834.30
2022-12-01T09:47:19.509Z,97829.13
2022-12-01T09:50:00.615Z,97826.02
2022-12-01T09:52:42.025Z,97824.77
2022-12-01T09:55:16.794Z,97824.70
2022-12-01T09:57:50.430Z,97823.40
2022-12-01T10:00:24.811Z,97821.50
2022-12-01T10:02:56.701Z,97825.77
2022-12-01T10:05:32.603Z,97822.03
2022-12-01T10:08:05.217Z,97820.85
2022-12-01T10:10:42.414Z,97813.86
2022-12-01T10:13:22.963Z,97817.23
2022-12-01T10:15:54.290Z,97822.93
2022-12-01T10:18:52.705Z,97818.75
2022-12-01T10:21:43.104Z,97814.30
2022-12-01T10:24:36.468Z,97811.83
2022-12-01T10:27:35.768Z,97810.67
2022-12-01T10:30:18.829Z,97811.73
2022-12-01T10:32:55.063Z,97812.38
2022-12-01T10:35:29.577Z,97808.87
2022-12-01T10:38:01.635Z,97804.38
2022-12-01T10:40:35.041Z,97799.38
2022-12-01T10:43:03.827Z,97802.05
2022-12-01T10:45:37.630Z,97800.73
2022-12-01T10:48:19.222Z,97806.46
2022-12-01T10:50:54.258Z,97799.71
2022-12-01T10:53:27.858Z,97794.51
2022-12-01T10:56:13.440Z,97795.36
2022-12-01T10:58:52.171Z,97792.45
2022-12-01T11:01:26.413Z,97789.46
2022-12-01T11:04:01.815Z,97787.54
2022-12-01T11:06:31.835Z,97784.70
2022-12-01T11:09:06.937Z,97779.02
2022-12-01T11:11:40.981Z,97775.39
2022-12-01T11:14:25.629Z,97778.27
2022-12-01T11:16:54.896Z,97776.09
2022-12-01T11:19:34.336Z,97777.67
2022-12-01T11:22:29.277Z,97774.17
2022-12-01T11:25:01.472Z,97767.25
2022-12-01T11:27:46.389Z,97763.11
2022-12-01T11:30:26.614Z,97763.90
2022-12-01T11:33:01.201Z,97762.73
2022-12-01T11:35:36.673Z,97762.52
2022-12-01T11:40:58.369Z,97754.86
2022-12-01T11:43:32.487Z,97762.36
2022-12-01T11:46:06.783Z,97764.98
2022-12-01T11:48:36.927Z,97760.70
2022-12-01T11:51:08.273Z,97758.95
2022-12-01T11:53:40.030Z,97759.72
2022-12-01T11:56:17.337Z,97760.27
2022-12-01T11:58:49.259Z,97760.84
2022-12-01T12:01:23.491Z,97759.63
2022-12-01T12:04:09.484Z,97761.20
2022-12-01T12:06:51.788Z,97762.61
2022-12-01T12:09:37.282Z,97763.69
2022-12-01T12:12:18.346Z,97760.21
2022-12-01T12:14:59.423Z,97766.23
2022-12-01T12:17:57.216Z,97765.04
2022-12-01T12:20:28.747Z,97760.23
2022-12-01T12:23:16.684Z,97757.23
2022-12-01T12:26:03.998Z,97758.95
2022-12-01T12:28:59.821Z,97761.54
2022-12-01T12:31:42.849Z,97757.60
2022-12-01T12:34:35.898Z,97760.27
2022-12-01T12:37:25.482Z,97760.12
2022-12-01T12:40:09.112Z,97760.44
2022-12-01T12:42:54.904Z,97758.08
2022-12-01T12:46:02.639Z,97758.16
2022-12-01T12:52:09.062Z,97754.20
2022-12-01T12:54:52.730Z,97759.68
2022-12-01T12:57:25.200Z,97757.06
2022-12-01T13:00:06.909Z,97758.19
2022-12-01T13:02:50.784Z,97760.71
2022-12-01T13:05:45.636Z,97761.91
2022-12-01T13:08:20.972Z,97766.02
2022-12-01T13:11:13.213Z,97767.42
2022-12-01T13:13:56.030Z,97768.44
2022-12-01T13:16:35.163Z,97767.88
2022-12-01T13:19:22.989Z,97769.67
2022-12-01T13:21:53.287Z,97770.02
2022-12-01T13:24:24.358Z,97772.58
2022-12-01T13:27:24.431Z,97769.49
2022-12-01T13:29:55.023Z,97770.71
2022-12-01T13:32:41.208Z,97766.41
2022-12-01T13:35:33.648Z,97765.40
2022-12-01T13:38:34.258Z,97756.36
2022-12-01T13:41:32.051Z,97757.46
2022-12-01T13:44:09.648Z,97760.00
2022-12-01T13:46:44.643Z,97762.52
2022-12-01T13:49:44.108Z,97761.48
2022-12-01T13:52:16.352Z,97761.80
2022-12-01T13:55:11.487Z,97766.67
2022-12-01T13:57:45.364Z,97763.41
2022-12-01T14:00:29.096Z,97765.75
2022-12-01T14:03:13.278Z,97766.08
2022-12-01T14:05:42.243Z,97768.11
2022-12-01T14:08:29.401Z,97767.17
2022-12-01T14:11:00.207Z,97765.21
2022-12-01T14:13:31.541Z,97769.95
2022-12-01T14:16:03.283Z,97764.72
2022-12-01T14:18:38.850Z,97765.14
2022-12-01T14:21:11.117Z,97767.94
2022-12-01T14:24:01.208Z,97767.69
2022-12-01T14:26:31.646Z,97764.76
2022-12-01T14:29:00.314Z,97765.42
2022-12-01T14:31:34.985Z,97760.62
2022-12-01T14:34:19.298Z,97765.69
2022-12-01T14:37:06.434Z,97766.38
2022-12-01T14:39:43.124Z,97766.42
2022-12-01T14:42:11.607Z,97768.04
2022-12-01T14:44:51.732Z,97766.92
2022-12-01T14:47:29.961Z,97765.27
2022-12-01T14:50:25.338Z,97765.88
2022-12-01T14:52:58.580Z,97770.11
2022-12-01T14:55:35.704Z,97767.60
2022-12-01T14:58:07.985Z,97766.67
2022-12-01T15:00:38.681Z,97766.18
2022-12-01T15:03:13.445Z,97768.53
2022-12-01T15:05:44.079Z,97765.39
2022-12-01T15:09:25.006Z,97774.71
2022-12-01T15:11:28.859Z,97769.96
2022-12-01T15:13:58.892Z,97772.98
2022-12-01T15:16:31.305Z,97776.05
2022-12-01T15:19:00.034Z,97773.31
2022-12-01T15:21:31.325Z,97773.42
2022-12-01T15:24:01.408Z,97772.49
2022-12-01T15:26:35.817Z,97771.77
2022-12-01T15:29:24.890Z,97772.27
2022-12-01T15:32:00.700Z,97773.51
2022-12-01T15:34:38.845Z,97776.31
2022-12-01T15:37:15.242Z,97774.82
2022-12-01T15:40:59.798Z,97773.70
2022-12-01T15:43:26.008Z,97772.40
2022-12-01T15:46:00.639Z,97773.17
2022-12-01T15:48:32.693Z,97777.77
2022-12-01T15:51:05.982Z,97776.69
2022-12-01T15:53:38.151Z,97780.38
2022-12-01T15:56:10.011Z,97782.02
2022-12-01T15:58:47.320Z,97781.98
2022-12-01T16:01:21.520Z,97783.32
2022-12-01T16:03:58.705Z,97786.60
2022-12-01T16:06:31.109Z,97785.94
2022-12-01T16:09:03.462Z,97787.46
2022-12-01T16:11:32.944Z,97790.75
2022-12-01T16:14:03.476Z,97793.30
2022-12-01T16:16:55.360Z,97793.33
2022-12-01T16:19:27.641Z,97793.52
2022-12-01T16:22:02.095Z,97794.65
2022-12-01T16:24:45.117Z,97793.75
2022-12-01T16:27:19.332Z,97799.17
2022-12-01T16:29:50.579Z,97796.81
2022-12-01T16:32:30.017Z,97795.95
2022-12-01T16:34:59.609Z,97796.32
2022-12-01T16:37:28.580Z,97799.13
2022-12-01T16:39:58.797Z,97798.36
2022-12-01T16:42:27.525Z,97797.98
2022-12-01T16:44:56.110Z,97796.80
2022-12-01T16:47:25.930Z,97795.52
2022-12-01T16:49:54.506Z,97797.56
2022-12-01T16:55:26.468Z,97798.81
2022-12-01T16:57:55.783Z,97798.14
2022-12-01T17:00:24.980Z,97801.39
2022-12-01T17:02:54.418Z,97805.58
2022-12-01T17:05:23.693Z,97806.36
2022-12-01T17:07:52.568Z,97797.89
2022-12-01T17:10:22.515Z,97799.52
2022-12-01T17:12:52.192Z,97804.96
2022-12-01T17:15:20.675Z,97801.95
2022-12-01T17:17:49.871Z,97799.24
2022-12-01T17:20:18.666Z,97801.73
2022-12-01T17:22:47.346Z,97799.50
2022-12-01T17:25:16.138Z,97799.14
2022-12-01T17:27:45.992Z,97804.02
2022-12-01T17:30:14.946Z,97805.13
2022-12-01T17:32:43.522Z,97807.52
2022-12-01T17:35:13.953Z,97806.98
2022-12-01T17:37:43.760Z,97812.64
2022-12-01T17:40:16.534Z,97816.10
2022-12-01T17:42:50.227Z,97817.52
2022-12-01T17:45:19.651Z,97815.94
2022-12-01T17:47:48.233Z,97813.20
2022-12-01T17:50:17.333Z,97814.15
2022-12-01T17:52:46.011Z,97815.88
2022-12-01T17:55:15.113Z,97816.89
2022-12-01T17:57:43.790Z,97815.56
2022-12-01T18:00:13.195Z,97817.48
2022-12-01T18:02:41.823Z,97817.84
2022-12-01T18:05:11.577Z,97812.93
2022-12-01T18:07:40.544Z,97815.02
2022-12-01T18:10:09.901Z,97813.19
2022-12-01T18:12:38.467Z,97809.55
2022-12-01T18:15:07.707Z,97810.23
2022-12-01T18:17:36.349Z,97806.65
2022-12-01T18:20:06.821Z,97804.27
2022-12-01T18:22:35.051Z,97806.52
2022-12-01T18:25:03.939Z,97806.17
2022-12-01T18:27:32.625Z,97812.54
2022-12-01T18:30:01.299Z,97814.29
2022-12-01T18:32:30.099Z,97811.60
2022-12-01T18:34:58.789Z,97808.06
2022-12-01T18:37:27.470Z,97809.83
2022-12-01T18:39:56.784Z,97811.04
2022-12-01T18:42:25.254Z,97809.82
2022-12-01T18:44:53.936Z,97814.27
2022-12-01T18:47:22.724Z,97815.39
2022-12-01T18:49:51.425Z,97812.68
2022-12-01T18:52:20.506Z,97813.73
2022-12-01T18:54:49.300Z,97817.34
2022-12-01T18:57:19.412Z,97815.33
2022-12-01T18:59:48.300Z,97813.28
2022-12-01T19:02:17.026Z,97814.83
2022-12-01T19:04:46.289Z,97814.80
2022-12-01T19:07:14.868Z,97814.88
2022-12-01T19:09:43.349Z,97814.56
2022-12-01T19:12:12.394Z,97813.98
2022-12-01T19:14:41.027Z,97814.53
2022-12-01T19:17:10.020Z,97813.70
2022-12-01T19:19:38.503Z,97816.83
2022-12-01T19:22:07.185Z,97817.69
2022-12-01T19:24:35.773Z,97813.42
2022-12-01T19:27:04.764Z,97815.31
2022-12-01T19:29:33.349Z,97812.59
2022-12-01T19:32:02.547Z,97810.23
2022-12-01T19:34:31.438Z,97809.70
2022-12-01T19:37:00.950Z,97814.69
2022-12-01T19:39:32.123Z,97811.93
2022-12-01T19:42:00.769Z,97815.52
2022-12-01T19:44:29.355Z,97817.94
2022-12-01T19:46:58.246Z,97817.08
2022-12-01T19:49:26.829Z,97815.90
2022-12-01T19:51:55.716Z,97815.11
2022-12-01T19:54:24.407Z,97814.36
2022-12-01T19:56:52.985Z,97814.11
2022-12-01T19:59:21.569Z,97815.50
2022-12-01T20:01:50.209Z,97816.53
2022-12-01T20:04:19.351Z,97818.56
2022-12-01T20:06:48.240Z,97816.80
2022-12-01T20:09:16.823Z,97813.03
2022-12-01T20:11:45.303Z,97818.14
2022-12-01T20:14:14.088Z,97816.58
2022-12-01T20:16:42.928Z,97817.42
2022-12-01T20:19:11.973Z,97814.73
2022-12-01T20:21:43.421Z,97817.04
2022-12-01T20:24:14.672Z,97818.89
2022-12-01T20:26:47.248Z,97820.61
2022-12-01T20:29:20.757Z,97823.96
2022-12-01T20:31:51.443Z,97818.57
2022-12-01T20:34:25.179Z,97818.42
2022-12-01T20:36:54.688Z,97817.12
2022-12-01T20:39:23.782Z,97812.98
2022-12-01T20:41:52.267Z,97815.92
2022-12-01T20:44:22.164Z,97815.61
2022-12-01T20:46:50.669Z,97812.73
2022-12-01T20:49:20.271Z,97813.77
2022-12-01T20:51:49.298Z,97814.68
2022-12-01T20:54:28.002Z,97813.52
2022-12-01T20:56:58.693Z,97812.02
2022-12-01T20:59:28.383Z,97811.02
2022-12-01T21:01:57.004Z,97816.71
2022-12-01T21:04:26.508Z,97817.08
2022-12-01T21:06:57.146Z,97815.17
2022-12-01T21:09:26.956Z,97817.41
2022-12-01T21:12:17.451Z,97811.56
2022-12-01T21:14:51.843Z,97808.05
2022-12-01T21:17:33.424Z,97807.27
2022-12-01T21:20:25.697Z,97810.30
2022-12-01T21:22:58.169Z,97810.80
2022-12-01T21:25:26.954Z,97812.89
2022-12-01T21:28:01.785Z,97818.83
2022-12-01T21:30:30.796Z,97823.67
2022-12-01T21:33:17.388Z,97822.71
2022-12-01T21:35:46.069Z,97821.36
2022-12-01T21:38:21.649Z,97820.92
2022-12-01T21:40:50.919Z,97822.98
2022-12-01T21:43:25.642Z,97827.09
2022-12-01T21:46:00.338Z,97825.02
2022-12-01T21:48:36.844Z,97826.25
2022-12-01T21:51:26.723Z,97826.77
2022-12-01T21:53:56.792Z,97828.95
2022-12-01T21:56:28.016Z,97825.64
2022-12-01T21:58:59.740Z,97829.39
2022-12-01T22:01:31.010Z,97830.90
2022-12-01T22:04:02.799Z,97830.55
2022-12-01T22:06:45.939Z,97832.47
2022-12-01T22:09:25.831Z,97829.73
2022-12-01T22:12:02.163Z,97827.05
2022-12-01T22:14:35.889Z,97828.59
2022-12-01T22:17:07.545Z,97828.96
2022-12-01T22:19:44.881Z,97825.52
2022-12-01T22:22:16.082Z,97822.27
2022-12-01T22:24:51.231Z,97826.94
2022-12-01T22:27:26.572Z,97822.14
2022-12-01T22:30:02.928Z,97816.07
2022-12-01T22:32:36.231Z,97817.40
2022-12-01T22:35:25.169Z,97817.09
2022-12-01T22:38:06.269Z,97813.63
2022-12-01T22:40:44.099Z,97813.05
2022-12-01T22:43:15.936Z,97809.23
2022-12-01T22:45:45.829Z,97806.27
2022-12-01T22:48:37.865Z,97805.00
2022-12-01T22:51:44.139Z,97807.22
2022-12-01T22:54:13.124Z,97807.51
2022-12-01T22:56:47.360Z,97805.23
2022-12-01T22:59:21.106Z,97808.52
2022-12-01T23:02:01.915Z,97809.59
2022-12-01T23:04:34.597Z,97811.02
2022-12-01T23:07:26.403Z,97811.70
2022-12-01T23:10:22.600Z,97808.92
2022-12-01T23:12:53.697Z,97805.85
2022-12-01T23:15:33.464Z,97805.66
2022-12-01T23:18:22.598Z,97803.73
2022-12-01T23:21:01.364Z,97804.23
2022-12-01T23:23:32.997Z,97805.43
2022-12-01T23:26:04.333Z,97808.92
2022-12-01T23:28:35.363Z,97809.12
2022-12-01T23:31:04.512Z,97805.50
2022-12-01T23:33:34.972Z,97803.91
2022-12-01T23:36:15.352Z,97804.79
2022-12-01T23:38:47.445Z,97804.39
2022-12-01T23:41:46.387Z,97805.75
2022-12-01T23:44:25.843Z,97806.06
2022-12-01T23:46:58.290Z,97805.77
2022-12-01T23:49:31.511Z,97805.95
2022-12-01T23:52:02.917Z,97805.91
2022-12-01T23:54:34.582Z,97804.78
2022-12-01T23:57:23.844Z,97803.93
2022-12-01T23:59:59.436Z,97802.07
